createdAt,value
2023-04-18T00:00:50.115Z,42.44
2023-04-18T00:01:50.243Z,40.48
2023-04-18T00:02:50.338Z,40.82
2023-04-18T00:03:50.464Z,43.18
2023-04-18T00:04:50.493Z,41.11
2023-04-18T00:05:50.282Z,41.43
2023-04-18T00:06:50.328Z,42.06
2023-04-18T00:07:50.337Z,41.53
2023-04-18T00:08:50.329Z,39.90
2023-04-18T00:09:50.352Z,41.66
2023-04-18T00:10:50.367Z,40.17
2023-04-18T00:11:50.408Z,42.70
2023-04-18T00:12:50.438Z,41.24
2023-04-18T00:13:50.491Z,41.79
2023-04-18T00:14:50.517Z,42.61
2023-04-18T00:15:50.519Z,43.00
2023-04-18T00:16:50.567Z,40.66
2023-04-18T00:17:50.567Z,40.90
2023-04-18T00:18:50.591Z,40.11
2023-04-18T00:19:50.571Z,43.56
2023-04-18T00:20:50.579Z,42.47
2023-04-18T00:21:50.587Z,42.26
2023-04-18T00:22:50.583Z,40.23
2023-04-18T00:23:50.584Z,40.05
2023-04-18T00:24:50.583Z,40.91
2023-04-18T00:25:50.603Z,40.23
2023-04-18T00:26:50.640Z,41.64
2023-04-18T00:27:50.703Z,39.44
2023-04-18T00:28:50.751Z,40.03
2023-04-18T00:29:50.837Z,39.76
2023-04-18T00:30:50.894Z,39.77
2023-04-18T00:31:50.840Z,39.31
2023-04-18T00:32:51.025Z,40.79
2023-04-18T00:33:50.906Z,38.83
2023-04-18T00:34:50.922Z,37.48
2023-04-18T00:35:50.927Z,41.99
2023-04-18T00:36:50.986Z,42.09
2023-04-18T00:37:50.981Z,42.19
2023-04-18T00:38:51.019Z,39.79
2023-04-18T00:39:51.049Z,40.95
2023-04-18T00:40:51.099Z,39.64
2023-04-18T00:41:51.136Z,41.83
2023-04-18T00:42:51.178Z,39.65
2023-04-18T00:43:51.218Z,40.35
2023-04-18T00:44:51.234Z,36.87
2023-04-18T00:45:51.311Z,41.35
2023-04-18T00:46:51.312Z,42.23
2023-04-18T00:47:51.331Z,39.81
2023-04-18T00:48:51.341Z,38.24
2023-04-18T00:49:51.357Z,39.60
2023-04-18T00:50:51.365Z,40.30
2023-04-18T00:51:51.376Z,41.13
2023-04-18T00:52:51.408Z,40.90
2023-04-18T00:53:51.433Z,39.48
2023-04-18T00:54:51.463Z,39.80
2023-04-18T00:55:51.535Z,38.09
2023-04-18T00:56:51.592Z,39.37
2023-04-18T00:57:51.624Z,40.31
2023-04-18T00:58:51.649Z,39.21
2023-04-18T00:59:51.645Z,38.07
2023-04-18T01:00:51.623Z,39.39
2023-04-18T01:01:51.677Z,40.27
2023-04-18T01:02:51.708Z,38.95
2023-04-18T01:03:51.749Z,40.72
2023-04-18T01:04:51.660Z,39.69
2023-04-18T01:05:51.689Z,40.95
2023-04-18T01:06:51.743Z,40.82
2023-04-18T01:07:51.752Z,41.23
2023-04-18T01:08:51.764Z,38.80
2023-04-18T01:09:51.789Z,38.97
2023-04-18T01:10:51.803Z,39.78
2023-04-18T01:11:51.817Z,41.54
2023-04-18T01:12:51.834Z,43.00
2023-04-18T01:13:51.844Z,39.87
2023-04-18T01:14:51.851Z,40.29
2023-04-18T01:15:51.872Z,37.29
2023-04-18T01:16:51.862Z,38.57
2023-04-18T01:17:51.908Z,38.55
2023-04-18T01:18:51.933Z,38.84
2023-04-18T01:19:51.983Z,40.86
2023-04-18T01:20:52.005Z,40.30
2023-04-18T01:21:52.025Z,41.76
2023-04-18T01:22:52.032Z,40.40
2023-04-18T01:23:52.052Z,40.56
2023-04-18T01:24:52.048Z,38.31
2023-04-18T01:25:52.043Z,37.70
2023-04-18T01:26:52.050Z,39.56
2023-04-18T01:27:52.056Z,39.01
2023-04-18T01:28:52.105Z,40.15
2023-04-18T01:29:52.164Z,38.40
2023-04-18T01:30:52.262Z,39.76
2023-04-18T01:31:52.264Z,39.42
2023-04-18T01:32:52.315Z,38.06
2023-04-18T01:33:52.361Z,38.70
2023-04-18T01:34:52.374Z,38.70
2023-04-18T01:35:52.407Z,38.68
2023-04-18T01:36:52.463Z,41.98
2023-04-18T01:37:52.488Z,39.04
2023-04-18T01:38:52.519Z,42.90
2023-04-18T01:39:52.572Z,41.54
2023-04-18T01:40:52.581Z,40.05
2023-04-18T01:41:52.630Z,41.65
2023-04-18T01:42:52.635Z,42.79
2023-04-18T01:43:52.653Z,39.69
2023-04-18T01:44:52.680Z,40.53
2023-04-18T01:45:52.708Z,40.37
2023-04-18T01:46:52.742Z,40.88
2023-04-18T01:47:52.791Z,43.32
2023-04-18T01:48:52.753Z,40.20
2023-04-18T01:49:52.785Z,40.64
2023-04-18T01:50:52.782Z,40.60
2023-04-18T01:51:52.805Z,42.01
2023-04-18T01:52:52.825Z,41.76
2023-04-18T01:53:52.814Z,41.78
2023-04-18T01:54:52.819Z,42.52
2023-04-18T01:55:52.829Z,38.26
2023-04-18T01:56:52.835Z,38.31
2023-04-18T01:57:52.836Z,38.05
2023-04-18T01:58:52.840Z,39.72
2023-04-18T01:59:52.839Z,38.36
2023-04-18T02:00:52.920Z,41.13
2023-04-18T02:01:52.960Z,39.90
2023-04-18T02:02:53.012Z,38.58
2023-04-18T02:03:53.163Z,39.04
2023-04-18T02:04:52.858Z,35.74
2023-04-18T02:05:52.850Z,40.52
2023-04-18T02:06:52.852Z,35.64
2023-04-18T02:07:52.856Z,40.93
2023-04-18T02:08:52.853Z,37.78
2023-04-18T02:09:52.846Z,39.28
2023-04-18T02:10:52.843Z,39.38
2023-04-18T02:11:52.835Z,33.00
2023-04-18T02:12:52.840Z,37.60
2023-04-18T02:13:52.838Z,34.21
2023-04-18T02:14:52.856Z,37.58
2023-04-18T02:15:52.838Z,35.80
2023-04-18T02:16:52.898Z,35.47
2023-04-18T02:17:52.888Z,40.31
2023-04-18T02:18:52.838Z,38.51
2023-04-18T02:19:52.810Z,40.60
2023-04-18T02:20:52.823Z,40.43
2023-04-18T02:21:52.796Z,39.81
2023-04-18T02:22:52.810Z,33.56
2023-04-18T02:23:52.801Z,39.77
2023-04-18T02:24:52.792Z,33.38
2023-04-18T02:25:52.790Z,39.05
2023-04-18T02:26:52.791Z,36.50
2023-04-18T02:27:52.789Z,39.91
2023-04-18T02:28:52.787Z,36.03
2023-04-18T02:29:52.788Z,36.91
2023-04-18T02:30:52.786Z,33.40
2023-04-18T02:31:52.789Z,37.46
2023-04-18T02:32:52.782Z,38.87
2023-04-18T02:33:52.768Z,39.06
2023-04-18T02:34:52.756Z,37.34
2023-04-18T02:35:52.760Z,39.98
2023-04-18T02:36:52.759Z,37.43
2023-04-18T02:37:52.743Z,36.92
2023-04-18T02:38:52.740Z,39.38
2023-04-18T02:39:52.720Z,37.35
2023-04-18T02:40:52.715Z,37.96
2023-04-18T02:41:52.707Z,35.74
2023-04-18T02:42:52.698Z,34.71
2023-04-18T02:43:52.713Z,32.23
2023-04-18T02:44:52.689Z,34.09
2023-04-18T02:45:52.731Z,32.61
2023-04-18T02:46:52.682Z,33.52
2023-04-18T02:47:55.928Z,38.57
2023-04-18T02:48:52.638Z,38.66
2023-04-18T02:49:52.611Z,38.61
2023-04-18T02:50:52.570Z,39.09
2023-04-18T02:51:52.534Z,35.95
2023-04-18T02:52:52.480Z,38.57
2023-04-18T02:53:52.467Z,39.82
2023-04-18T02:54:52.412Z,39.15
2023-04-18T02:55:52.378Z,39.46
2023-04-18T02:56:52.341Z,38.21
2023-04-18T02:57:52.309Z,37.87
2023-04-18T02:58:52.283Z,30.72
2023-04-18T02:59:52.236Z,38.50
2023-04-18T03:00:52.204Z,37.01
2023-04-18T03:01:52.362Z,36.68
2023-04-18T03:02:52.150Z,36.89
2023-04-18T03:03:52.090Z,37.04
2023-04-18T03:04:52.069Z,39.43
2023-04-18T03:05:52.023Z,39.12
2023-04-18T03:06:51.957Z,35.57
2023-04-18T03:07:51.925Z,37.49
2023-04-18T03:08:51.866Z,35.29
2023-04-18T03:09:51.836Z,39.59
2023-04-18T03:10:51.800Z,37.85
2023-04-18T03:11:51.755Z,32.16
2023-04-18T03:12:51.715Z,33.85
2023-04-18T03:13:51.705Z,37.11
2023-04-18T03:14:51.650Z,38.75
2023-04-18T03:15:51.629Z,32.63
2023-04-18T03:16:53.816Z,37.49
2023-04-18T03:17:51.550Z,37.64
2023-04-18T03:18:51.496Z,38.06
2023-04-18T03:19:51.448Z,36.41
2023-04-18T03:20:51.406Z,37.42
2023-04-18T03:21:51.359Z,35.24
2023-04-18T03:22:51.304Z,35.45
2023-04-18T03:23:51.274Z,37.93
2023-04-18T03:24:51.245Z,35.72
2023-04-18T03:25:51.205Z,36.03
2023-04-18T03:26:51.169Z,36.90
2023-04-18T03:27:51.128Z,36.55
2023-04-18T03:28:51.086Z,37.17
2023-04-18T03:29:51.057Z,38.72
2023-04-18T03:30:51.067Z,33.04
2023-04-18T03:31:50.977Z,38.98
2023-04-18T03:32:50.958Z,32.65
2023-04-18T03:33:51.464Z,39.15
2023-04-18T03:34:50.878Z,33.81
2023-04-18T03:35:50.837Z,40.02
2023-04-18T03:36:50.804Z,37.33
2023-04-18T03:37:50.763Z,36.53
2023-04-18T03:38:50.725Z,36.49
2023-04-18T03:39:50.690Z,35.07
2023-04-18T03:40:50.653Z,35.71
2023-04-18T03:41:50.622Z,34.18
2023-04-18T03:42:50.580Z,35.08
2023-04-18T03:43:50.545Z,34.57
2023-04-18T03:44:50.506Z,34.93
2023-04-18T03:45:50.465Z,29.27
2023-04-18T03:46:50.425Z,32.59
2023-04-18T03:47:50.463Z,37.61
2023-04-18T03:48:50.360Z,40.90
2023-04-18T03:49:50.328Z,35.85
2023-04-18T03:50:50.288Z,36.01
2023-04-18T03:51:50.258Z,40.39
2023-04-18T03:52:50.224Z,31.65
2023-04-18T03:53:50.214Z,35.37
2023-04-18T03:54:50.154Z,33.42
2023-04-18T03:55:50.120Z,33.09
2023-04-18T03:56:50.099Z,37.02
2023-04-18T03:57:50.050Z,39.15
2023-04-18T03:58:50.026Z,34.87
2023-04-18T03:59:49.988Z,33.59
2023-04-18T04:00:49.962Z,39.95
2023-04-18T04:01:49.944Z,34.44
2023-04-18T04:02:50.007Z,35.98
2023-04-18T04:03:50.062Z,34.08
2023-04-18T04:04:49.877Z,38.31
2023-04-18T04:05:49.800Z,36.54
2023-04-18T04:06:49.758Z,34.29
2023-04-18T04:07:49.739Z,38.41
2023-04-18T04:08:49.696Z,36.71
2023-04-18T04:09:49.665Z,37.11
2023-04-18T04:10:49.615Z,36.97
2023-04-18T04:11:49.581Z,26.33
2023-04-18T04:12:49.559Z,37.49
2023-04-18T04:13:49.520Z,36.01
2023-04-18T04:14:49.488Z,34.92
2023-04-18T04:15:49.455Z,30.87
2023-04-18T04:16:49.463Z,40.26
2023-04-18T04:17:49.449Z,41.32
2023-04-18T04:18:49.364Z,36.29
2023-04-18T04:19:49.337Z,37.11
2023-04-18T04:20:49.298Z,37.95
2023-04-18T04:21:49.274Z,33.35
2023-04-18T04:22:49.247Z,33.63
2023-04-18T04:23:49.237Z,36.73
2023-04-18T04:24:49.231Z,35.94
2023-04-18T04:25:49.220Z,32.04
2023-04-18T04:26:49.217Z,33.01
2023-04-18T04:27:49.199Z,34.17
2023-04-18T04:28:49.184Z,34.37
2023-04-18T04:29:49.213Z,31.32
2023-04-18T04:30:49.186Z,35.45
2023-04-18T04:31:49.186Z,35.56
2023-04-18T04:32:49.149Z,38.55
2023-04-18T04:33:49.132Z,32.49
2023-04-18T04:34:49.121Z,30.75
2023-04-18T04:35:49.110Z,38.15
2023-04-18T04:36:49.104Z,34.88
2023-04-18T04:37:49.090Z,37.16
2023-04-18T04:38:49.095Z,31.91
2023-04-18T04:39:49.079Z,36.52
2023-04-18T04:40:49.075Z,35.35
2023-04-18T04:41:49.061Z,34.62
2023-04-18T04:42:49.051Z,33.23
2023-04-18T04:43:49.037Z,35.07
2023-04-18T04:44:49.066Z,36.95
2023-04-18T04:45:49.065Z,34.08
2023-04-18T04:46:49.027Z,32.65
2023-04-18T04:47:49.081Z,37.75
2023-04-18T04:48:49.001Z,38.78
2023-04-18T04:49:48.993Z,32.17
2023-04-18T04:50:48.983Z,37.38
2023-04-18T04:51:48.982Z,38.30
2023-04-18T04:52:48.966Z,32.59
2023-04-18T04:53:48.959Z,33.93
2023-04-18T04:54:48.948Z,36.97
2023-04-18T04:55:48.937Z,35.20
2023-04-18T04:56:48.944Z,39.37
2023-04-18T04:57:48.930Z,34.47
2023-04-18T04:58:48.916Z,36.29
2023-04-18T04:59:48.899Z,37.77
2023-04-18T05:00:48.900Z,34.22
2023-04-18T05:01:49.048Z,33.12
2023-04-18T05:02:48.985Z,38.61
2023-04-18T05:03:49.001Z,35.33
2023-04-18T05:04:48.851Z,37.89
2023-04-18T05:05:48.831Z,35.15
2023-04-18T05:06:48.826Z,26.31
2023-04-18T05:07:48.817Z,38.97
2023-04-18T05:08:48.831Z,31.83
2023-04-18T05:09:48.801Z,38.10
2023-04-18T05:10:48.792Z,33.49
2023-04-18T05:11:48.796Z,35.56
2023-04-18T05:12:48.996Z,38.57
2023-04-18T05:13:48.765Z,37.33
2023-04-18T05:14:48.753Z,32.67
2023-04-18T05:15:48.739Z,29.86
2023-04-18T05:16:48.754Z,32.13
2023-04-18T05:17:48.767Z,30.56
2023-04-18T05:18:48.690Z,35.28
2023-04-18T05:19:48.687Z,32.56
2023-04-18T05:20:48.661Z,35.53
2023-04-18T05:21:48.658Z,31.23
2023-04-18T05:22:48.669Z,35.75
2023-04-18T05:23:48.654Z,30.03
2023-04-18T05:24:48.635Z,30.56
2023-04-18T05:25:48.707Z,31.71
2023-04-18T05:26:48.613Z,33.20
2023-04-18T05:27:48.590Z,38.84
2023-04-18T05:28:48.577Z,54.69
2023-04-18T05:29:48.579Z,55.57
2023-04-18T05:30:48.600Z,62.46
2023-04-18T05:31:48.567Z,61.77
2023-04-18T05:32:48.624Z,59.98
2023-04-18T05:33:49.010Z,70.30
2023-04-18T05:34:48.465Z,84.53
2023-04-18T05:35:48.429Z,91.86
2023-04-18T05:36:48.407Z,109.46
2023-04-18T05:37:48.371Z,119.11
2023-04-18T05:38:48.363Z,129.05
2023-04-18T05:39:48.402Z,145.32
2023-04-18T05:40:48.374Z,157.19
2023-04-18T05:41:48.373Z,161.55
2023-04-18T05:42:48.420Z,171.97
2023-04-18T05:44:01.825Z,180.16
2023-04-18T05:44:49.381Z,180.64
2023-04-18T05:45:48.345Z,183.20
2023-04-18T05:46:48.379Z,189.46
2023-04-18T05:47:48.267Z,200.26
2023-04-18T05:48:48.168Z,225.63
2023-04-18T05:49:48.120Z,237.80
2023-04-18T05:50:48.057Z,247.96
2023-04-18T05:51:48.006Z,249.92
2023-04-18T05:52:47.962Z,248.03
2023-04-18T05:53:47.908Z,250.00
2023-04-18T05:54:47.846Z,250.19
2023-04-18T05:55:47.803Z,248.95
2023-04-18T05:56:47.744Z,250.00
2023-04-18T05:57:48.436Z,247.42
2023-04-18T05:58:47.645Z,249.96
2023-04-18T05:59:47.573Z,251.79
2023-04-18T06:00:47.529Z,250.00
2023-04-18T06:01:47.483Z,250.00
2023-04-18T06:02:47.521Z,250.00
2023-04-18T06:03:47.673Z,250.00
2023-04-18T06:04:47.425Z,249.87
2023-04-18T06:05:47.394Z,250.00
2023-04-18T06:06:47.284Z,249.21
2023-04-18T06:07:47.272Z,250.00
2023-04-18T06:08:47.238Z,250.00
2023-04-18T06:09:47.217Z,249.92
2023-04-18T06:10:47.179Z,248.92
2023-04-18T06:11:47.152Z,249.89
2023-04-18T06:12:47.145Z,249.35
2023-04-18T06:13:47.190Z,250.00
2023-04-18T06:14:47.091Z,249.92
2023-04-18T06:15:47.088Z,250.31
2023-04-18T06:16:47.027Z,249.66
2023-04-18T06:17:47.044Z,249.49
2023-04-18T06:18:46.962Z,249.46
2023-04-18T06:19:46.927Z,250.00
2023-04-18T06:20:46.896Z,248.55
2023-04-18T06:21:46.860Z,249.32
2023-04-18T06:22:46.843Z,249.55
2023-04-18T06:23:46.779Z,248.15
2023-04-18T06:24:46.735Z,247.28
2023-04-18T06:25:46.691Z,243.29
2023-04-18T06:26:46.679Z,242.05
2023-04-18T06:27:46.733Z,240.26
2023-04-18T06:28:46.587Z,238.53
2023-04-18T06:29:46.561Z,235.46
2023-04-18T06:30:46.543Z,239.27
2023-04-18T06:31:46.522Z,237.06
2023-04-18T06:32:46.615Z,237.10
2023-04-18T06:33:46.535Z,236.89
2023-04-18T06:34:46.478Z,234.65
2023-04-18T06:35:46.480Z,236.18
2023-04-18T06:36:46.475Z,235.82
2023-04-18T06:37:46.495Z,233.38
2023-04-18T06:38:46.488Z,234.81
2023-04-18T06:39:46.510Z,231.36
2023-04-18T06:40:46.517Z,232.89
2023-04-18T06:41:47.459Z,234.28
2023-04-18T06:42:46.551Z,231.40
2023-04-18T06:43:59.672Z,230.91
2023-04-18T06:44:47.457Z,231.00
2023-04-18T06:45:46.567Z,231.27
2023-04-18T06:46:46.340Z,231.12
2023-04-18T06:47:46.290Z,230.05
2023-04-18T06:48:46.267Z,228.54
2023-04-18T06:49:46.193Z,228.42
2023-04-18T06:50:46.140Z,227.10
2023-04-18T06:51:46.081Z,226.13
2023-04-18T06:52:46.052Z,229.23
2023-04-18T06:53:45.972Z,225.61
2023-04-18T06:54:45.923Z,224.84
2023-04-18T06:55:45.874Z,225.96
2023-04-18T06:56:45.827Z,226.04
2023-04-18T06:57:45.815Z,223.83
2023-04-18T06:58:46.055Z,223.41
2023-04-18T06:59:45.765Z,222.24
2023-04-18T07:00:45.762Z,222.94
2023-04-18T07:01:45.743Z,221.74
2023-04-18T07:02:45.882Z,222.50
2023-04-18T07:03:45.731Z,224.04
2023-04-18T07:04:45.676Z,222.49
2023-04-18T07:05:45.648Z,221.78
2023-04-18T07:06:45.635Z,223.28
2023-04-18T07:07:45.618Z,223.40
2023-04-18T07:08:45.595Z,218.84
2023-04-18T07:09:45.578Z,217.81
2023-04-18T07:10:45.552Z,220.08
2023-04-18T07:11:45.524Z,219.61
2023-04-18T07:12:45.498Z,220.50
2023-04-18T07:13:46.464Z,220.58
2023-04-18T07:14:45.398Z,220.73
2023-04-18T07:15:45.406Z,218.56
2023-04-18T07:16:45.337Z,217.55
2023-04-18T07:17:45.319Z,215.77
2023-04-18T07:18:45.241Z,218.19
2023-04-18T07:19:45.196Z,217.52
2023-04-18T07:20:45.143Z,218.38
2023-04-18T07:21:45.129Z,218.78
2023-04-18T07:22:45.056Z,218.42
2023-04-18T07:23:45.536Z,216.06
2023-04-18T07:24:44.950Z,217.52
2023-04-18T07:25:44.942Z,217.76
2023-04-18T07:26:44.872Z,214.95
2023-04-18T07:27:44.945Z,211.09
2023-04-18T07:28:44.888Z,207.75
2023-04-18T07:29:44.885Z,206.62
2023-04-18T07:30:44.884Z,206.73
2023-04-18T07:31:44.787Z,206.60
2023-04-18T07:32:44.777Z,204.82
2023-04-18T07:33:44.682Z,206.62
2023-04-18T07:34:44.647Z,204.23
2023-04-18T07:35:44.588Z,195.65
2023-04-18T07:36:44.533Z,137.65
2023-04-18T07:37:44.573Z,107.05
2023-04-18T07:38:44.459Z,97.34
2023-04-18T07:39:44.420Z,74.88
2023-04-18T07:40:44.391Z,59.62
2023-04-18T07:41:44.362Z,41.93
2023-04-18T07:42:44.335Z,36.21
2023-04-18T07:43:44.343Z,23.56
2023-04-18T07:44:44.968Z,17.46
2023-04-18T07:45:44.390Z,25.05
2023-04-18T07:46:44.455Z,25.00
2023-04-18T07:47:44.529Z,25.79
2023-04-18T07:48:44.473Z,26.32
2023-04-18T07:49:44.528Z,23.51
2023-04-18T07:50:44.682Z,25.92
2023-04-18T07:51:44.638Z,25.00
2023-04-18T07:52:44.667Z,25.35
2023-04-18T07:53:44.746Z,25.12
2023-04-18T07:54:45.782Z,28.22
2023-04-18T07:55:44.791Z,31.80
2023-04-18T07:56:44.824Z,32.99
2023-04-18T07:57:45.967Z,32.74
2023-04-18T07:58:44.851Z,31.22
2023-04-18T07:59:44.850Z,30.66
2023-04-18T08:00:44.904Z,35.26
2023-04-18T08:01:44.832Z,43.76
2023-04-18T08:02:44.940Z,51.97
2023-04-18T08:03:45.135Z,58.90
2023-04-18T08:04:44.984Z,63.78
2023-04-18T08:05:45.274Z,67.79
2023-04-18T08:06:44.894Z,70.72
2023-04-18T08:07:44.924Z,74.18
2023-04-18T08:08:44.860Z,77.48
2023-04-18T08:09:44.816Z,75.23
2023-04-18T08:10:44.782Z,71.78
2023-04-18T08:11:44.742Z,69.15
2023-04-18T08:12:44.738Z,59.02
2023-04-18T08:13:44.704Z,53.22
2023-04-18T08:14:44.688Z,49.20
2023-04-18T08:15:44.706Z,47.74
2023-04-18T08:16:44.758Z,46.80
2023-04-18T08:17:44.715Z,44.13
2023-04-18T08:18:44.695Z,39.01
2023-04-18T08:19:44.724Z,30.88
2023-04-18T08:20:44.749Z,28.81
2023-04-18T08:21:44.765Z,26.75
2023-04-18T08:22:57.631Z,26.04
2023-04-18T08:23:45.743Z,26.05
2023-04-18T08:25:01.088Z,22.43
2023-04-18T08:25:45.694Z,20.73
2023-04-18T08:26:44.845Z,19.53
2023-04-18T08:27:44.598Z,27.04
2023-04-18T08:28:46.097Z,31.57
2023-04-18T08:29:44.543Z,39.76
2023-04-18T08:30:44.511Z,52.53
2023-04-18T08:31:44.551Z,61.12
2023-04-18T08:32:44.515Z,63.68
2023-04-18T08:33:44.382Z,69.66
2023-04-18T08:34:44.342Z,76.07
2023-04-18T08:35:44.283Z,79.88
2023-04-18T08:36:44.249Z,79.69
2023-04-18T08:37:44.305Z,84.54
2023-04-18T08:38:44.220Z,87.65
2023-04-18T08:39:44.195Z,89.68
2023-04-18T08:40:44.156Z,94.85
2023-04-18T08:41:44.176Z,95.76
2023-04-18T08:42:44.170Z,102.68
2023-04-18T08:43:44.181Z,105.06
2023-04-18T08:44:44.190Z,108.53
2023-04-18T08:45:44.308Z,109.70
2023-04-18T08:46:44.204Z,115.99
2023-04-18T08:47:44.214Z,118.45
2023-04-18T08:48:44.190Z,119.69
2023-04-18T08:49:44.169Z,123.47
2023-04-18T08:50:44.152Z,126.78
2023-04-18T08:51:44.140Z,130.83
2023-04-18T08:52:44.117Z,132.63
2023-04-18T08:53:44.112Z,134.70
2023-04-18T08:54:44.086Z,135.44
2023-04-18T08:55:44.058Z,140.22
2023-04-18T08:56:44.000Z,141.27
2023-04-18T08:57:43.960Z,144.85
2023-04-18T08:58:43.951Z,147.39
2023-04-18T08:59:45.631Z,150.43
2023-04-18T09:00:43.873Z,153.97
2023-04-18T09:01:43.894Z,156.42
2023-04-18T09:02:43.971Z,158.48
2023-04-18T09:03:43.798Z,160.99
2023-04-18T09:04:44.581Z,163.94
2023-04-18T09:05:43.714Z,165.81
2023-04-18T09:06:43.740Z,165.30
2023-04-18T09:07:43.624Z,169.04
2023-04-18T09:08:43.645Z,172.82
2023-04-18T09:09:43.571Z,177.85
2023-04-18T09:10:46.083Z,178.88
2023-04-18T09:11:43.403Z,179.97
2023-04-18T09:12:43.345Z,182.18
2023-04-18T09:13:43.284Z,183.61
2023-04-18T09:14:43.229Z,185.82
2023-04-18T09:15:43.162Z,186.39
2023-04-18T09:16:43.142Z,189.27
2023-04-18T09:17:43.035Z,193.38
2023-04-18T09:18:42.975Z,195.66
2023-04-18T09:19:42.913Z,197.28
2023-04-18T09:20:42.848Z,197.64
2023-04-18T09:21:42.793Z,201.27
2023-04-18T09:22:42.729Z,204.61
2023-04-18T09:23:43.505Z,206.60
2023-04-18T09:24:42.609Z,209.09
2023-04-18T09:25:44.809Z,211.09
2023-04-18T09:26:42.474Z,211.11
2023-04-18T09:27:42.463Z,211.30
2023-04-18T09:28:42.352Z,212.10
2023-04-18T09:29:42.308Z,213.30
2023-04-18T09:30:42.328Z,215.72
2023-04-18T09:31:42.172Z,217.24
2023-04-18T09:32:42.137Z,219.61
2023-04-18T09:33:42.053Z,221.64
2023-04-18T09:34:41.984Z,223.43
2023-04-18T09:35:42.476Z,225.20
2023-04-18T09:36:41.873Z,226.48
2023-04-18T09:37:41.797Z,227.64
2023-04-18T09:38:41.736Z,229.42
2023-04-18T09:39:41.677Z,231.39
2023-04-18T09:40:41.593Z,233.03
2023-04-18T09:41:41.584Z,233.69
2023-04-18T09:42:41.453Z,235.18
2023-04-18T09:43:41.410Z,236.98
2023-04-18T09:44:41.331Z,243.57
2023-04-18T09:45:41.264Z,249.81
2023-04-18T09:46:41.314Z,248.74
2023-04-18T09:47:41.150Z,249.66
2023-04-18T09:48:41.068Z,247.58
2023-04-18T09:49:41.002Z,248.18
2023-04-18T09:50:40.939Z,248.56
2023-04-18T09:51:40.867Z,249.67
2023-04-18T09:52:40.796Z,249.08
2023-04-18T09:53:40.745Z,250.00
2023-04-18T09:54:40.679Z,250.00
2023-04-18T09:55:40.598Z,249.16
2023-04-18T09:56:41.518Z,249.93
2023-04-18T09:57:40.468Z,248.44
2023-04-18T09:58:40.407Z,248.92
2023-04-18T09:59:40.351Z,250.00
2023-04-18T10:00:40.293Z,250.28
2023-04-18T10:01:40.266Z,250.00
2023-04-18T10:02:40.223Z,250.00
2023-04-18T10:03:40.152Z,249.57
2023-04-18T10:04:40.166Z,248.77
2023-04-18T10:05:40.049Z,249.33
2023-04-18T10:06:39.948Z,249.28
2023-04-18T10:07:40.597Z,250.00
2023-04-18T10:08:39.797Z,250.00
2023-04-18T10:09:39.702Z,249.50
2023-04-18T10:10:39.647Z,249.32
2023-04-18T10:11:39.555Z,248.59
2023-04-18T10:12:39.536Z,247.64
2023-04-18T10:13:39.512Z,246.68
2023-04-18T10:14:39.556Z,246.01
2023-04-18T10:15:40.378Z,244.10
2023-04-18T10:16:39.535Z,242.90
2023-04-18T10:17:41.236Z,243.36
2023-04-18T10:18:40.296Z,243.42
2023-04-18T10:19:39.234Z,242.77
2023-04-18T10:20:39.174Z,241.29
2023-04-18T10:21:39.105Z,240.23
2023-04-18T10:22:40.054Z,242.93
2023-04-18T10:23:39.007Z,241.05
2023-04-18T10:24:38.920Z,239.84
2023-04-18T10:25:39.605Z,239.71
2023-04-18T10:26:38.794Z,238.93
2023-04-18T10:27:39.568Z,238.04
2023-04-18T10:28:39.472Z,237.50
2023-04-18T10:29:38.638Z,238.72
2023-04-18T10:30:38.573Z,237.86
2023-04-18T10:31:38.754Z,237.86
2023-04-18T10:32:38.553Z,236.25
2023-04-18T10:33:41.007Z,235.47
2023-04-18T10:34:38.374Z,235.52
2023-04-18T10:35:40.377Z,235.50
2023-04-18T10:36:38.284Z,235.54
2023-04-18T10:37:38.202Z,235.58
2023-04-18T10:38:38.150Z,234.66
2023-04-18T10:39:38.159Z,235.68
2023-04-18T10:40:38.059Z,233.97
2023-04-18T10:41:37.999Z,235.24
2023-04-18T10:42:37.966Z,234.25
2023-04-18T10:43:37.912Z,233.47
2023-04-18T10:44:37.872Z,232.94
2023-04-18T10:45:37.801Z,232.86
2023-04-18T10:46:37.835Z,232.60
2023-04-18T10:47:37.820Z,232.44
2023-04-18T10:48:38.597Z,233.01
2023-04-18T10:49:37.651Z,232.01
2023-04-18T10:50:37.560Z,231.13
2023-04-18T10:51:37.517Z,231.49
2023-04-18T10:52:37.459Z,230.52
2023-04-18T10:53:37.388Z,231.03
2023-04-18T10:54:37.348Z,230.22
2023-04-18T10:55:37.460Z,229.68
2023-04-18T10:56:37.249Z,229.08
2023-04-18T10:57:37.217Z,229.49
2023-04-18T10:58:37.215Z,228.98
2023-04-18T10:59:37.111Z,228.94
2023-04-18T11:00:37.062Z,228.43
2023-04-18T11:01:37.097Z,227.08
2023-04-18T11:02:37.133Z,227.93
2023-04-18T11:03:36.967Z,226.99
2023-04-18T11:04:36.901Z,225.96
2023-04-18T11:05:36.788Z,227.23
2023-04-18T11:06:36.725Z,227.09
2023-04-18T11:07:36.745Z,226.79
2023-04-18T11:08:36.641Z,225.58
2023-04-18T11:09:36.570Z,226.14
2023-04-18T11:10:36.521Z,225.79
2023-04-18T11:11:36.460Z,225.55
2023-04-18T11:12:36.560Z,225.50
2023-04-18T11:13:36.356Z,225.45
2023-04-18T11:14:36.292Z,226.08
2023-04-18T11:15:36.254Z,225.97
2023-04-18T11:16:36.333Z,225.74
2023-04-18T11:17:36.329Z,225.10
2023-04-18T11:18:36.185Z,224.63
2023-04-18T11:19:36.316Z,225.69
2023-04-18T11:20:36.201Z,224.72
2023-04-18T11:21:36.184Z,225.19
2023-04-18T11:22:36.094Z,223.77
2023-04-18T11:23:36.068Z,223.98
2023-04-18T11:24:36.075Z,223.17
2023-04-18T11:25:36.039Z,222.93
2023-04-18T11:26:36.283Z,222.71
2023-04-18T11:27:35.993Z,221.84
2023-04-18T11:28:35.954Z,223.10
2023-04-18T11:29:35.933Z,222.80
2023-04-18T11:30:35.917Z,221.43
2023-04-18T11:31:35.988Z,221.82
2023-04-18T11:32:35.895Z,221.16
2023-04-18T11:33:35.822Z,220.78
2023-04-18T11:34:35.815Z,219.86
2023-04-18T11:35:35.766Z,220.37
2023-04-18T11:36:35.752Z,219.33
2023-04-18T11:37:35.717Z,219.61
2023-04-18T11:38:35.676Z,218.86
2023-04-18T11:39:35.716Z,219.02
2023-04-18T11:40:35.634Z,217.95
2023-04-18T11:41:35.631Z,218.57
2023-04-18T11:42:35.625Z,217.09
2023-04-18T11:43:35.606Z,217.67
2023-04-18T11:44:36.363Z,217.68
2023-04-18T11:45:35.550Z,216.74
2023-04-18T11:46:35.567Z,216.18
2023-04-18T11:47:35.530Z,215.74
2023-04-18T11:48:35.495Z,216.71
2023-04-18T11:49:35.457Z,215.19
2023-04-18T11:50:35.434Z,215.23
2023-04-18T11:51:35.398Z,215.31
2023-04-18T11:52:35.382Z,214.51
2023-04-18T11:53:35.400Z,214.14
2023-04-18T11:54:35.341Z,215.06
2023-04-18T11:55:35.313Z,212.97
2023-04-18T11:56:36.805Z,213.04
2023-04-18T11:57:35.290Z,213.67
2023-04-18T11:58:35.271Z,213.78
2023-04-18T11:59:35.249Z,211.96
2023-04-18T12:00:36.140Z,212.28
2023-04-18T12:01:35.211Z,211.97
2023-04-18T12:02:35.269Z,211.71
2023-04-18T12:03:35.295Z,211.38
2023-04-18T12:04:35.319Z,212.51
2023-04-18T12:05:35.286Z,211.47
2023-04-18T12:06:35.105Z,211.44
2023-04-18T12:07:35.084Z,211.91
2023-04-18T12:08:35.041Z,210.54
2023-04-18T12:09:35.015Z,211.19
2023-04-18T12:10:35.000Z,210.08
2023-04-18T12:11:34.977Z,209.54
2023-04-18T12:12:34.961Z,209.42
2023-04-18T12:13:34.943Z,209.79
2023-04-18T12:14:34.901Z,208.81
2023-04-18T12:15:34.907Z,207.79
2023-04-18T12:16:34.904Z,207.68
2023-04-18T12:17:34.866Z,207.69
2023-04-18T12:18:34.815Z,207.47
2023-04-18T12:19:34.795Z,208.06
2023-04-18T12:20:34.769Z,206.94
2023-04-18T12:21:34.885Z,206.40
2023-04-18T12:22:34.738Z,206.02
2023-04-18T12:23:34.709Z,205.79
2023-04-18T12:24:34.701Z,205.24
2023-04-18T12:25:34.658Z,204.37
2023-04-18T12:26:34.659Z,204.78
2023-04-18T12:27:34.627Z,203.88
2023-04-18T12:28:34.610Z,204.14
2023-04-18T12:29:34.593Z,204.64
2023-04-18T12:30:37.368Z,204.06
2023-04-18T12:31:34.556Z,205.98
2023-04-18T12:32:34.531Z,203.35
2023-04-18T12:33:34.478Z,204.49
2023-04-18T12:34:34.363Z,204.08
2023-04-18T12:35:34.330Z,203.56
2023-04-18T12:36:34.313Z,201.59
2023-04-18T12:37:34.220Z,201.53
2023-04-18T12:38:34.174Z,201.13
2023-04-18T12:39:34.131Z,201.92
2023-04-18T12:40:34.076Z,202.76
2023-04-18T12:41:34.034Z,200.96